sensor_id;sensor_type;location;lat;lon;timestamp;temperature;humidity
16283;DHT22;8249;48.708;9.030;2022-07-23T00:01:23;23.20;99.90
16283;DHT22;8249;48.708;9.030;2022-07-23T00:03:52;23.10;99.90
16283;DHT22;8249;48.708;9.030;2022-07-23T00:06:19;23.00;99.90
16283;DHT22;8249;48.708;9.030;2022-07-23T00:08:46;22.90;99.90
16283;DHT22;8249;48.708;9.030;2022-07-23T00:11:13;22.90;99.90
16283;DHT22;8249;48.708;9.030;2022-07-23T00:13:40;22.90;99.90
16283;DHT22;8249;48.708;9.030;2022-07-23T00:16:07;22.80;99.90
16283;DHT22;8249;48.708;9.030;2022-07-23T00:18:33;22.80;99.90
16283;DHT22;8249;48.708;9.030;2022-07-23T00:21:02;22.80;99.90
16283;DHT22;8249;48.708;9.030;2022-07-23T00:23:29;22.80;99.90
16283;DHT22;8249;48.708;9.030;2022-07-23T00:25:56;22.80;99.90
16283;DHT22;8249;48.708;9.030;2022-07-23T00:28:23;22.70;99.90
16283;DHT22;8249;48.708;9.030;2022-07-23T00:30:50;22.70;99.90
16283;DHT22;8249;48.708;9.030;2022-07-23T00:33:16;22.60;99.90
16283;DHT22;8249;48.708;9.030;2022-07-23T00:35:43;22.50;99.90
16283;DHT22;8249;48.708;9.030;2022-07-23T00:38:12;22.30;99.90
16283;DHT22;8249;48.708;9.030;2022-07-23T00:40:39;22.10;99.90
16283;DHT22;8249;48.708;9.030;2022-07-23T00:43:05;22.00;99.90
16283;DHT22;8249;48.708;9.030;2022-07-23T00:45:32;21.90;99.90
16283;DHT22;8249;48.708;9.030;2022-07-23T00:47:59;21.80;99.90
16283;DHT22;8249;48.708;9.030;2022-07-23T00:50:26;21.80;99.90
16283;DHT22;8249;48.708;9.030;2022-07-23T00:52:53;21.80;99.90
16283;DHT22;8249;48.708;9.030;2022-07-23T00:55:21;21.80;99.90
16283;DHT22;8249;48.708;9.030;2022-07-23T00:57:48;21.70;99.90
16283;DHT22;8249;48.708;9.030;2022-07-23T01:00:16;21.70;99.90
16283;DHT22;8249;48.708;9.030;2022-07-23T01:02:43;21.70;99.90
16283;DHT22;8249;48.708;9.030;2022-07-23T01:05:10;21.70;99.90
16283;DHT22;8249;48.708;9.030;2022-07-23T01:07:37;21.70;99.90
16283;DHT22;8249;48.708;9.030;2022-07-23T01:10:04;21.70;99.90
16283;DHT22;8249;48.708;9.030;2022-07-23T01:12:52;21.70;99.90
16283;DHT22;8249;48.708;9.030;2022-07-23T01:15:19;21.70;99.90
16283;DHT22;8249;48.708;9.030;2022-07-23T01:17:46;21.70;99.90
16283;DHT22;8249;48.708;9.030;2022-07-23T01:20:13;21.70;99.90
16283;DHT22;8249;48.708;9.030;2022-07-23T01:22:41;21.60;99.90
16283;DHT22;8249;48.708;9.030;2022-07-23T01:25:08;21.60;99.90
16283;DHT22;8249;48.708;9.030;2022-07-23T01:27:36;21.60;99.90
16283;DHT22;8249;48.708;9.030;2022-07-23T01:30:04;21.60;99.90
16283;DHT22;8249;48.708;9.030;2022-07-23T01:32:31;21.60;99.90
16283;DHT22;8249;48.708;9.030;2022-07-23T01:34:57;21.60;99.90
16283;DHT22;8249;48.708;9.030;2022-07-23T01:37:24;21.50;99.90
16283;DHT22;8249;48.708;9.030;2022-07-23T01:39:52;21.40;99.90
16283;DHT22;8249;48.708;9.030;2022-07-23T01:42:19;21.40;99.90
16283;DHT22;8249;48.708;9.030;2022-07-23T01:44:46;21.30;99.90
16283;DHT22;8249;48.708;9.030;2022-07-23T01:47:18;21.20;99.90
16283;DHT22;8249;48.708;9.030;2022-07-23T01:49:46;21.10;99.90
16283;DHT22;8249;48.708;9.030;2022-07-23T01:52:41;21.00;99.90
16283;DHT22;8249;48.708;9.030;2022-07-23T01:55:09;21.00;99.90
16283;DHT22;8249;48.708;9.030;2022-07-23T01:57:39;21.00;99.90
16283;DHT22;8249;48.708;9.030;2022-07-23T02:00:06;21.00;99.90
16283;DHT22;8249;48.708;9.030;2022-07-23T02:02:38;20.90;99.90
16283;DHT22;8249;48.708;9.030;2022-07-23T02:05:05;20.70;99.90
16283;DHT22;8249;48.708;9.030;2022-07-23T02:07:33;20.50;99.90
16283;DHT22;8249;48.708;9.030;2022-07-23T02:10:00;20.40;99.90
16283;DHT22;8249;48.708;9.030;2022-07-23T02:12:28;20.30;99.90
16283;DHT22;8249;48.708;9.030;2022-07-23T02:14:55;20.30;99.90
16283;DHT22;8249;48.708;9.030;2022-07-23T02:17:24;20.30;99.90
16283;DHT22;8249;48.708;9.030;2022-07-23T02:19:51;20.30;99.90
16283;DHT22;8249;48.708;9.030;2022-07-23T02:22:17;20.10;99.90
16283;DHT22;8249;48.708;9.030;2022-07-23T02:24:44;20.00;99.90
16283;DHT22;8249;48.708;9.030;2022-07-23T02:27:11;20.10;99.90
16283;DHT22;8249;48.708;9.030;2022-07-23T02:29:40;20.00;99.90
16283;DHT22;8249;48.708;9.030;2022-07-23T02:32:06;20.00;99.90
16283;DHT22;8249;48.708;9.030;2022-07-23T02:34:33;20.00;99.90
16283;DHT22;8249;48.708;9.030;2022-07-23T02:37:00;20.10;99.90
16283;DHT22;8249;48.708;9.030;2022-07-23T02:39:29;20.10;99.90
16283;DHT22;8249;48.708;9.030;2022-07-23T02:41:56;20.10;99.90
16283;DHT22;8249;48.708;9.030;2022-07-23T02:44:23;20.10;99.90
16283;DHT22;8249;48.708;9.030;2022-07-23T02:46:55;20.10;99.90
16283;DHT22;8249;48.708;9.030;2022-07-23T02:49:21;20.10;99.90
16283;DHT22;8249;48.708;9.030;2022-07-23T02:51:50;20.10;99.90
16283;DHT22;8249;48.708;9.030;2022-07-23T02:54:17;20.10;99.90
16283;DHT22;8249;48.708;9.030;2022-07-23T02:56:44;20.10;99.90
16283;DHT22;8249;48.708;9.030;2022-07-23T02:59:11;20.10;99.90
16283;DHT22;8249;48.708;9.030;2022-07-23T03:01:37;20.20;99.90
16283;DHT22;8249;48.708;9.030;2022-07-23T03:04:07;20.30;99.90
16283;DHT22;8249;48.708;9.030;2022-07-23T03:06:34;20.30;99.90
16283;DHT22;8249;48.708;9.030;2022-07-23T03:09:01;20.30;99.90
16283;DHT22;8249;48.708;9.030;2022-07-23T03:11:28;20.30;99.90
16283;DHT22;8249;48.708;9.030;2022-07-23T03:13:55;20.20;99.90
16283;DHT22;8249;48.708;9.030;2022-07-23T03:16:22;20.20;99.90
16283;DHT22;8249;48.708;9.030;2022-07-23T03:18:49;20.10;99.90
16283;DHT22;8249;48.708;9.030;2022-07-23T03:21:18;20.10;99.90
16283;DHT22;8249;48.708;9.030;2022-07-23T03:23:45;20.10;99.90
16283;DHT22;8249;48.708;9.030;2022-07-23T03:26:12;20.10;99.90
16283;DHT22;8249;48.708;9.030;2022-07-23T03:28:38;20.00;99.90
16283;DHT22;8249;48.708;9.030;2022-07-23T03:31:05;20.00;99.90
16283;DHT22;8249;48.708;9.030;2022-07-23T03:33:32;20.00;99.90
16283;DHT22;8249;48.708;9.030;2022-07-23T03:35:59;19.90;99.90
16283;DHT22;8249;48.708;9.030;2022-07-23T03:38:30;19.90;99.90
16283;DHT22;8249;48.708;9.030;2022-07-23T03:40:57;19.90;99.90
16283;DHT22;8249;48.708;9.030;2022-07-23T03:43:24;19.90;99.90
16283;DHT22;8249;48.708;9.030;2022-07-23T03:45:51;19.90;99.90
16283;DHT22;8249;48.708;9.030;2022-07-23T03:48:18;19.80;99.90
16283;DHT22;8249;48.708;9.030;2022-07-23T03:50:45;19.80;99.90
16283;DHT22;8249;48.708;9.030;2022-07-23T03:53:12;19.80;99.90
16283;DHT22;8249;48.708;9.030;2022-07-23T03:55:40;19.80;99.90
16283;DHT22;8249;48.708;9.030;2022-07-23T03:58:07;19.70;99.90
16283;DHT22;8249;48.708;9.030;2022-07-23T04:00:34;19.70;99.90
16283;DHT22;8249;48.708;9.030;2022-07-23T04:03:01;19.70;99.90
16283;DHT22;8249;48.708;9.030;2022-07-23T04:05:28;19.60;99.90
16283;DHT22;8249;48.708;9.030;2022-07-23T04:08:04;19.60;99.90
16283;DHT22;8249;48.708;9.030;2022-07-23T04:10:32;19.60;99.90
16283;DHT22;8249;48.708;9.030;2022-07-23T04:13:00;19.60;99.90
16283;DHT22;8249;48.708;9.030;2022-07-23T04:15:27;19.60;99.90
16283;DHT22;8249;48.708;9.030;2022-07-23T04:17:53;19.60;99.90
16283;DHT22;8249;48.708;9.030;2022-07-23T04:20:22;19.60;99.90
16283;DHT22;8249;48.708;9.030;2022-07-23T04:22:55;19.60;99.90
16283;DHT22;8249;48.708;9.030;2022-07-23T04:25:22;19.60;99.90
16283;DHT22;8249;48.708;9.030;2022-07-23T04:27:49;19.60;99.90
16283;DHT22;8249;48.708;9.030;2022-07-23T04:30:17;19.60;99.90
16283;DHT22;8249;48.708;9.030;2022-07-23T04:32:44;19.60;99.90
16283;DHT22;8249;48.708;9.030;2022-07-23T04:35:23;19.60;99.90
16283;DHT22;8249;48.708;9.030;2022-07-23T04:37:53;19.60;99.90
16283;DHT22;8249;48.708;9.030;2022-07-23T04:40:20;19.70;99.90
16283;DHT22;8249;48.708;9.030;2022-07-23T04:42:47;19.70;99.90
16283;DHT22;8249;48.708;9.030;2022-07-23T04:45:14;19.70;99.90
16283;DHT22;8249;48.708;9.030;2022-07-23T04:47:43;19.70;99.90
16283;DHT22;8249;48.708;9.030;2022-07-23T04:50:11;19.80;99.90
16283;DHT22;8249;48.708;9.030;2022-07-23T04:52:43;19.80;99.90
16283;DHT22;8249;48.708;9.030;2022-07-23T04:55:09;19.80;99.90
16283;DHT22;8249;48.708;9.030;2022-07-23T04:57:36;19.90;99.90
16283;DHT22;8249;48.708;9.030;2022-07-23T05:00:03;19.90;99.90
16283;DHT22;8249;48.708;9.030;2022-07-23T05:02:31;19.90;99.90
16283;DHT22;8249;48.708;9.030;2022-07-23T05:04:59;20.00;99.90
16283;DHT22;8249;48.708;9.030;2022-07-23T05:07:26;20.10;99.90
16283;DHT22;8249;48.708;9.030;2022-07-23T05:09:54;20.10;99.90
16283;DHT22;8249;48.708;9.030;2022-07-23T05:12:20;20.20;99.90
16283;DHT22;8249;48.708;9.030;2022-07-23T05:14:47;20.20;99.90
16283;DHT22;8249;48.708;9.030;2022-07-23T05:17:15;20.20;99.90
16283;DHT22;8249;48.708;9.030;2022-07-23T05:19:41;20.30;99.90
16283;DHT22;8249;48.708;9.030;2022-07-23T05:22:10;20.30;99.90
16283;DHT22;8249;48.708;9.030;2022-07-23T05:24:37;20.40;99.90
16283;DHT22;8249;48.708;9.030;2022-07-23T05:27:07;20.50;99.90
16283;DHT22;8249;48.708;9.030;2022-07-23T05:29:33;20.50;99.90
16283;DHT22;8249;48.708;9.030;2022-07-23T05:32:00;20.60;99.90
16283;DHT22;8249;48.708;9.030;2022-07-23T05:34:29;20.70;99.90
16283;DHT22;8249;48.708;9.030;2022-07-23T05:36:57;20.80;99.90
16283;DHT22;8249;48.708;9.030;2022-07-23T05:39:25;21.00;99.90
16283;DHT22;8249;48.708;9.030;2022-07-23T05:41:52;21.10;99.90
16283;DHT22;8249;48.708;9.030;2022-07-23T05:44:19;21.20;99.90
16283;DHT22;8249;48.708;9.030;2022-07-23T05:46:47;21.30;99.90
16283;DHT22;8249;48.708;9.030;2022-07-23T05:49:19;21.30;99.90
16283;DHT22;8249;48.708;9.030;2022-07-23T05:51:46;21.30;99.90
16283;DHT22;8249;48.708;9.030;2022-07-23T05:54:15;21.20;99.90
16283;DHT22;8249;48.708;9.030;2022-07-23T05:56:43;21.20;99.90
16283;DHT22;8249;48.708;9.030;2022-07-23T05:59:11;21.30;99.90
16283;DHT22;8249;48.708;9.030;2022-07-23T06:01:40;21.30;99.90
16283;DHT22;8249;48.708;9.030;2022-07-23T06:04:09;21.30;99.90
16283;DHT22;8249;48.708;9.030;2022-07-23T06:06:41;21.40;99.90
16283;DHT22;8249;48.708;9.030;2022-07-23T06:09:09;21.40;99.90
16283;DHT22;8249;48.708;9.030;2022-07-23T06:11:39;21.50;99.90
16283;DHT22;8249;48.708;9.030;2022-07-23T06:14:08;21.60;99.90
16283;DHT22;8249;48.708;9.030;2022-07-23T06:16:49;21.60;99.90
16283;DHT22;8249;48.708;9.030;2022-07-23T06:19:16;21.70;99.90
16283;DHT22;8249;48.708;9.030;2022-07-23T06:21:43;21.90;99.90
16283;DHT22;8249;48.708;9.030;2022-07-23T06:24:10;22.00;99.90
16283;DHT22;8249;48.708;9.030;2022-07-23T06:26:38;22.20;99.90
16283;DHT22;8249;48.708;9.030;2022-07-23T06:29:05;22.30;99.90
16283;DHT22;8249;48.708;9.030;2022-07-23T06:31:33;22.40;99.90
16283;DHT22;8249;48.708;9.030;2022-07-23T06:34:00;22.60;99.90
16283;DHT22;8249;48.708;9.030;2022-07-23T06:36:27;22.80;99.90
16283;DHT22;8249;48.708;9.030;2022-07-23T06:38:53;23.00;99.90
16283;DHT22;8249;48.708;9.030;2022-07-23T06:41:20;23.20;99.90
16283;DHT22;8249;48.708;9.030;2022-07-23T06:43:47;23.20;99.90
16283;DHT22;8249;48.708;9.030;2022-07-23T06:46:15;23.10;99.90
16283;DHT22;8249;48.708;9.030;2022-07-23T06:48:44;23.10;99.90
16283;DHT22;8249;48.708;9.030;2022-07-23T06:51:10;23.00;99.90
16283;DHT22;8249;48.708;9.030;2022-07-23T06:53:37;22.90;99.90
16283;DHT22;8249;48.708;9.030;2022-07-23T06:56:04;22.90;99.90
16283;DHT22;8249;48.708;9.030;2022-07-23T06:58:32;22.90;99.90
16283;DHT22;8249;48.708;9.030;2022-07-23T07:00:59;22.90;99.90
16283;DHT22;8249;48.708;9.030;2022-07-23T07:03:26;22.90;99.90
16283;DHT22;8249;48.708;9.030;2022-07-23T07:05:54;22.90;99.90
16283;DHT22;8249;48.708;9.030;2022-07-23T07:08:22;22.90;99.90
16283;DHT22;8249;48.708;9.030;2022-07-23T07:10:49;22.90;99.90
16283;DHT22;8249;48.708;9.030;2022-07-23T07:13:16;22.90;99.90
16283;DHT22;8249;48.708;9.030;2022-07-23T07:15:43;22.80;99.90
16283;DHT22;8249;48.708;9.030;2022-07-23T07:18:09;22.90;99.90
16283;DHT22;8249;48.708;9.030;2022-07-23T07:20:36;23.00;99.90
16283;DHT22;8249;48.708;9.030;2022-07-23T07:23:04;23.00;99.90
16283;DHT22;8249;48.708;9.030;2022-07-23T07:25:31;23.10;99.90
16283;DHT22;8249;48.708;9.030;2022-07-23T07:27:58;23.00;99.90
16283;DHT22;8249;48.708;9.030;2022-07-23T07:30:24;23.10;99.90
16283;DHT22;8249;48.708;9.030;2022-07-23T07:32:51;23.10;99.90
16283;DHT22;8249;48.708;9.030;2022-07-23T07:35:18;23.20;99.90
16283;DHT22;8249;48.708;9.030;2022-07-23T07:37:44;23.30;99.90
16283;DHT22;8249;48.708;9.030;2022-07-23T07:40:13;23.60;99.90
16283;DHT22;8249;48.708;9.030;2022-07-23T07:42:45;23.80;99.90
16283;DHT22;8249;48.708;9.030;2022-07-23T07:45:12;24.00;99.90
16283;DHT22;8249;48.708;9.030;2022-07-23T07:47:39;24.10;99.90
16283;DHT22;8249;48.708;9.030;2022-07-23T07:50:06;24.30;99.90
16283;DHT22;8249;48.708;9.030;2022-07-23T07:52:33;24.20;99.90
16283;DHT22;8249;48.708;9.030;2022-07-23T07:55:01;24.20;99.90
16283;DHT22;8249;48.708;9.030;2022-07-23T07:57:29;24.20;99.90
16283;DHT22;8249;48.708;9.030;2022-07-23T07:59:56;24.30;99.90
16283;DHT22;8249;48.708;9.030;2022-07-23T08:02:23;24.30;99.90
16283;DHT22;8249;48.708;9.030;2022-07-23T08:04:50;24.50;99.90
16283;DHT22;8249;48.708;9.030;2022-07-23T08:07:16;24.70;99.90
16283;DHT22;8249;48.708;9.030;2022-07-23T08:09:43;24.70;99.90
16283;DHT22;8249;48.708;9.030;2022-07-23T08:12:10;24.70;99.90
16283;DHT22;8249;48.708;9.030;2022-07-23T08:14:38;24.40;99.90
16283;DHT22;8249;48.708;9.030;2022-07-23T08:17:05;24.30;99.90
16283;DHT22;8249;48.708;9.030;2022-07-23T08:19:32;24.30;99.90
16283;DHT22;8249;48.708;9.030;2022-07-23T08:21:58;24.20;99.90
16283;DHT22;8249;48.708;9.030;2022-07-23T08:24:25;24.20;99.90
16283;DHT22;8249;48.708;9.030;2022-07-23T08:26:52;24.40;99.90
16283;DHT22;8249;48.708;9.030;2022-07-23T08:29:19;24.60;99.90
16283;DHT22;8249;48.708;9.030;2022-07-23T08:31:47;24.80;99.90
16283;DHT22;8249;48.708;9.030;2022-07-23T08:34:13;24.90;99.90
16283;DHT22;8249;48.708;9.030;2022-07-23T08:36:40;25.00;99.90
16283;DHT22;8249;48.708;9.030;2022-07-23T08:39:07;25.20;99.90
16283;DHT22;8249;48.708;9.030;2022-07-23T08:41:33;25.20;99.90
16283;DHT22;8249;48.708;9.030;2022-07-23T08:44:00;25.40;99.90
16283;DHT22;8249;48.708;9.030;2022-07-23T08:46:28;25.90;99.90
16283;DHT22;8249;48.708;9.030;2022-07-23T08:48:56;26.40;99.90
16283;DHT22;8249;48.708;9.030;2022-07-23T08:51:25;26.70;99.90
16283;DHT22;8249;48.708;9.030;2022-07-23T08:53:52;26.80;99.90
16283;DHT22;8249;48.708;9.030;2022-07-23T08:56:19;26.60;99.90
16283;DHT22;8249;48.708;9.030;2022-07-23T08:58:46;26.50;99.90
16283;DHT22;8249;48.708;9.030;2022-07-23T09:01:13;26.50;99.90
16283;DHT22;8249;48.708;9.030;2022-07-23T09:03:40;26.30;99.90
16283;DHT22;8249;48.708;9.030;2022-07-23T09:06:11;26.30;99.90
16283;DHT22;8249;48.708;9.030;2022-07-23T09:08:39;26.50;99.90
16283;DHT22;8249;48.708;9.030;2022-07-23T09:11:06;26.80;99.90
16283;DHT22;8249;48.708;9.030;2022-07-23T09:13:35;27.00;99.90
16283;DHT22;8249;48.708;9.030;2022-07-23T09:16:04;27.50;99.90
16283;DHT22;8249;48.708;9.030;2022-07-23T09:18:33;27.40;99.90
16283;DHT22;8249;48.708;9.030;2022-07-23T09:21:10;27.20;99.90
16283;DHT22;8249;48.708;9.030;2022-07-23T09:23:39;27.00;99.90
16283;DHT22;8249;48.708;9.030;2022-07-23T09:26:19;27.30;99.90
16283;DHT22;8249;48.708;9.030;2022-07-23T09:28:51;27.90;99.90
16283;DHT22;8249;48.708;9.030;2022-07-23T09:31:18;28.00;99.90
16283;DHT22;8249;48.708;9.030;2022-07-23T09:33:44;27.90;99.90
16283;DHT22;8249;48.708;9.030;2022-07-23T09:36:11;28.20;99.90
16283;DHT22;8249;48.708;9.030;2022-07-23T09:38:48;28.10;99.90
16283;DHT22;8249;48.708;9.030;2022-07-23T09:41:15;27.90;99.90
16283;DHT22;8249;48.708;9.030;2022-07-23T09:43:42;27.80;99.90
16283;DHT22;8249;48.708;9.030;2022-07-23T09:46:18;28.60;99.90
16283;DHT22;8249;48.708;9.030;2022-07-23T09:48:46;28.50;99.90
16283;DHT22;8249;48.708;9.030;2022-07-23T09:51:13;28.80;99.90
16283;DHT22;8249;48.708;9.030;2022-07-23T09:53:40;29.40;99.90
16283;DHT22;8249;48.708;9.030;2022-07-23T09:56:09;29.70;99.90
16283;DHT22;8249;48.708;9.030;2022-07-23T09:58:37;30.00;99.90
16283;DHT22;8249;48.708;9.030;2022-07-23T10:01:10;30.30;99.90
16283;DHT22;8249;48.708;9.030;2022-07-23T10:03:38;30.70;99.90
16283;DHT22;8249;48.708;9.030;2022-07-23T10:06:40;31.30;99.60
16283;DHT22;8249;48.708;9.030;2022-07-23T10:09:39;31.30;96.80
16283;DHT22;8249;48.708;9.030;2022-07-23T10:12:21;31.00;96.70
16283;DHT22;8249;48.708;9.030;2022-07-23T10:15:00;31.30;97.20
16283;DHT22;8249;48.708;9.030;2022-07-23T10:17:27;31.80;96.90
16283;DHT22;8249;48.708;9.030;2022-07-23T10:19:54;32.10;96.80
16283;DHT22;8249;48.708;9.030;2022-07-23T10:22:22;32.60;95.40
16283;DHT22;8249;48.708;9.030;2022-07-23T10:24:52;32.90;94.60
16283;DHT22;8249;48.708;9.030;2022-07-23T10:27:34;33.00;94.40
16283;DHT22;8249;48.708;9.030;2022-07-23T10:30:05;32.50;92.60
16283;DHT22;8249;48.708;9.030;2022-07-23T10:32:37;31.80;92.20
16283;DHT22;8249;48.708;9.030;2022-07-23T10:35:07;31.90;93.10
16283;DHT22;8249;48.708;9.030;2022-07-23T10:37:39;32.40;93.80
16283;DHT22;8249;48.708;9.030;2022-07-23T10:40:10;32.90;92.60
16283;DHT22;8249;48.708;9.030;2022-07-23T10:42:38;32.60;91.60
16283;DHT22;8249;48.708;9.030;2022-07-23T10:45:21;32.00;92.10
16283;DHT22;8249;48.708;9.030;2022-07-23T10:47:49;31.40;92.00
16283;DHT22;8249;48.708;9.030;2022-07-23T10:50:16;31.40;93.20
16283;DHT22;8249;48.708;9.030;2022-07-23T10:52:45;32.00;92.50
16283;DHT22;8249;48.708;9.030;2022-07-23T10:55:44;32.60;92.10
16283;DHT22;8249;48.708;9.030;2022-07-23T10:58:18;32.80;90.60
16283;DHT22;8249;48.708;9.030;2022-07-23T11:00:45;32.30;90.40
16283;DHT22;8249;48.708;9.030;2022-07-23T11:03:33;31.20;90.80
16283;DHT22;8249;48.708;9.030;2022-07-23T11:06:02;31.60;92.30
16283;DHT22;8249;48.708;9.030;2022-07-23T11:08:30;31.80;92.10
16283;DHT22;8249;48.708;9.030;2022-07-23T11:11:07;31.60;92.60
16283;DHT22;8249;48.708;9.030;2022-07-23T11:13:40;31.10;92.70
16283;DHT22;8249;48.708;9.030;2022-07-23T11:16:10;31.20;93.20
16283;DHT22;8249;48.708;9.030;2022-07-23T11:18:57;32.10;90.90
16283;DHT22;8249;48.708;9.030;2022-07-23T11:21:46;32.60;92.20
16283;DHT22;8249;48.708;9.030;2022-07-23T11:24:14;33.00;90.10
16283;DHT22;8249;48.708;9.030;2022-07-23T11:26:45;33.70;89.20
16283;DHT22;8249;48.708;9.030;2022-07-23T11:32:00;34.10;85.30
16283;DHT22;8249;48.708;9.030;2022-07-23T11:34:29;33.50;85.90
16283;DHT22;8249;48.708;9.030;2022-07-23T11:36:56;33.40;85.30
16283;DHT22;8249;48.708;9.030;2022-07-23T11:39:24;33.70;85.70
16283;DHT22;8249;48.708;9.030;2022-07-23T11:41:51;33.80;88.50
16283;DHT22;8249;48.708;9.030;2022-07-23T11:44:24;33.60;83.50
16283;DHT22;8249;48.708;9.030;2022-07-23T11:46:54;33.00;83.10
16283;DHT22;8249;48.708;9.030;2022-07-23T11:49:23;32.60;85.80
16283;DHT22;8249;48.708;9.030;2022-07-23T11:52:02;33.20;83.60
16283;DHT22;8249;48.708;9.030;2022-07-23T11:54:29;33.20;83.60
16283;DHT22;8249;48.708;9.030;2022-07-23T11:56:56;34.20;85.10
16283;DHT22;8249;48.708;9.030;2022-07-23T11:59:23;34.90;84.60
16283;DHT22;8249;48.708;9.030;2022-07-23T12:01:57;35.40;82.70
16283;DHT22;8249;48.708;9.030;2022-07-23T12:04:29;35.90;82.30
16283;DHT22;8249;48.708;9.030;2022-07-23T12:07:03;35.60;79.00
16283;DHT22;8249;48.708;9.030;2022-07-23T12:09:30;35.60;80.20
16283;DHT22;8249;48.708;9.030;2022-07-23T12:11:57;35.60;81.90
16283;DHT22;8249;48.708;9.030;2022-07-23T12:14:24;35.50;78.30
16283;DHT22;8249;48.708;9.030;2022-07-23T12:19:34;33.70;80.30
16283;DHT22;8249;48.708;9.030;2022-07-23T12:22:01;34.00;82.90
16283;DHT22;8249;48.708;9.030;2022-07-23T12:24:28;33.80;80.40
16283;DHT22;8249;48.708;9.030;2022-07-23T12:27:07;34.20;82.20
16283;DHT22;8249;48.708;9.030;2022-07-23T12:29:34;34.00;81.20
16283;DHT22;8249;48.708;9.030;2022-07-23T12:32:01;33.40;82.20
16283;DHT22;8249;48.708;9.030;2022-07-23T12:34:28;32.40;80.70
16283;DHT22;8249;48.708;9.030;2022-07-23T12:36:56;31.80;84.10
16283;DHT22;8249;48.708;9.030;2022-07-23T12:39:29;30.80;86.10
16283;DHT22;8249;48.708;9.030;2022-07-23T12:41:56;30.90;87.00
16283;DHT22;8249;48.708;9.030;2022-07-23T12:44:23;31.70;87.40
16283;DHT22;8249;48.708;9.030;2022-07-23T12:46:50;31.60;87.40
16283;DHT22;8249;48.708;9.030;2022-07-23T12:49:25;32.30;86.20
16283;DHT22;8249;48.708;9.030;2022-07-23T12:51:51;33.00;87.20
16283;DHT22;8249;48.708;9.030;2022-07-23T12:54:26;33.00;83.40
16283;DHT22;8249;48.708;9.030;2022-07-23T12:56:53;32.00;85.90
16283;DHT22;8249;48.708;9.030;2022-07-23T12:59:20;31.60;85.80
16283;DHT22;8249;48.708;9.030;2022-07-23T13:01:53;31.70;87.80
16283;DHT22;8249;48.708;9.030;2022-07-23T13:04:20;32.50;85.90
16283;DHT22;8249;48.708;9.030;2022-07-23T13:06:48;32.30;85.20
16283;DHT22;8249;48.708;9.030;2022-07-23T13:09:16;32.90;85.30
16283;DHT22;8249;48.708;9.030;2022-07-23T13:11:44;33.70;85.20
16283;DHT22;8249;48.708;9.030;2022-07-23T13:14:12;33.80;80.90
16283;DHT22;8249;48.708;9.030;2022-07-23T13:16:39;33.40;81.60
16283;DHT22;8249;48.708;9.030;2022-07-23T13:19:06;34.20;82.20
16283;DHT22;8249;48.708;9.030;2022-07-23T13:21:33;34.50;82.00
16283;DHT22;8249;48.708;9.030;2022-07-23T13:24:00;34.30;79.50
16283;DHT22;8249;48.708;9.030;2022-07-23T13:26:27;33.40;79.90
16283;DHT22;8249;48.708;9.030;2022-07-23T13:28:55;32.90;81.10
16283;DHT22;8249;48.708;9.030;2022-07-23T13:31:23;32.40;82.60
16283;DHT22;8249;48.708;9.030;2022-07-23T13:33:50;32.00;82.80
16283;DHT22;8249;48.708;9.030;2022-07-23T13:36:17;31.40;84.20
16283;DHT22;8249;48.708;9.030;2022-07-23T13:38:43;31.10;84.80
16283;DHT22;8249;48.708;9.030;2022-07-23T13:41:10;30.80;84.50
16283;DHT22;8249;48.708;9.030;2022-07-23T13:43:37;30.60;86.20
16283;DHT22;8249;48.708;9.030;2022-07-23T13:46:05;30.40;87.30
16283;DHT22;8249;48.708;9.030;2022-07-23T13:48:32;30.10;87.20
16283;DHT22;8249;48.708;9.030;2022-07-23T13:50:59;29.90;89.20
16283;DHT22;8249;48.708;9.030;2022-07-23T13:53:25;29.80;88.70
16283;DHT22;8249;48.708;9.030;2022-07-23T13:55:52;29.50;90.00
16283;DHT22;8249;48.708;9.030;2022-07-23T13:58:19;29.40;89.60
16283;DHT22;8249;48.708;9.030;2022-07-23T14:00:48;29.40;90.60
16283;DHT22;8249;48.708;9.030;2022-07-23T14:03:16;29.20;90.00
16283;DHT22;8249;48.708;9.030;2022-07-23T14:05:43;29.00;90.40
16283;DHT22;8249;48.708;9.030;2022-07-23T14:08:10;29.00;90.40
16283;DHT22;8249;48.708;9.030;2022-07-23T14:10:37;28.90;90.10
16283;DHT22;8249;48.708;9.030;2022-07-23T14:13:04;29.00;90.00
16283;DHT22;8249;48.708;9.030;2022-07-23T14:15:31;29.70;90.00
16283;DHT22;8249;48.708;9.030;2022-07-23T14:17:58;30.80;88.60
16283;DHT22;8249;48.708;9.030;2022-07-23T14:20:26;31.00;86.90
16283;DHT22;8249;48.708;9.030;2022-07-23T14:22:53;30.70;87.70
16283;DHT22;8249;48.708;9.030;2022-07-23T14:25:21;29.90;85.70
16283;DHT22;8249;48.708;9.030;2022-07-23T14:27:47;29.50;87.70
16283;DHT22;8249;48.708;9.030;2022-07-23T14:30:14;29.20;87.20
16283;DHT22;8249;48.708;9.030;2022-07-23T14:32:41;29.30;87.60
16283;DHT22;8249;48.708;9.030;2022-07-23T14:35:08;29.00;86.20
16283;DHT22;8249;48.708;9.030;2022-07-23T14:37:36;29.10;87.70
16283;DHT22;8249;48.708;9.030;2022-07-23T14:40:05;29.30;89.20
16283;DHT22;8249;48.708;9.030;2022-07-23T14:42:32;29.90;89.10
16283;DHT22;8249;48.708;9.030;2022-07-23T14:44:59;30.50;85.20
16283;DHT22;8249;48.708;9.030;2022-07-23T14:47:26;30.20;85.10
16283;DHT22;8249;48.708;9.030;2022-07-23T14:49:52;29.90;84.80
16283;DHT22;8249;48.708;9.030;2022-07-23T14:52:19;29.60;84.80
16283;DHT22;8249;48.708;9.030;2022-07-23T14:54:47;29.50;86.80
16283;DHT22;8249;48.708;9.030;2022-07-23T14:57:14;29.60;85.00
16283;DHT22;8249;48.708;9.030;2022-07-23T14:59:41;29.60;85.40
16283;DHT22;8249;48.708;9.030;2022-07-23T15:02:08;29.60;85.60
16283;DHT22;8249;48.708;9.030;2022-07-23T15:04:35;29.50;85.00
16283;DHT22;8249;48.708;9.030;2022-07-23T15:07:02;29.30;86.30
16283;DHT22;8249;48.708;9.030;2022-07-23T15:09:29;29.50;84.50
16283;DHT22;8249;48.708;9.030;2022-07-23T15:11:57;29.80;85.40
16283;DHT22;8249;48.708;9.030;2022-07-23T15:14:24;29.60;85.70
16283;DHT22;8249;48.708;9.030;2022-07-23T15:16:50;29.40;86.10
16283;DHT22;8249;48.708;9.030;2022-07-23T15:19:17;29.30;86.30
16283;DHT22;8249;48.708;9.030;2022-07-23T15:21:44;29.20;86.40
16283;DHT22;8249;48.708;9.030;2022-07-23T15:24:11;29.30;85.90
16283;DHT22;8249;48.708;9.030;2022-07-23T15:26:38;29.80;86.50
16283;DHT22;8249;48.708;9.030;2022-07-23T15:29:06;30.10;85.80
16283;DHT22;8249;48.708;9.030;2022-07-23T15:31:33;29.70;85.40
16283;DHT22;8249;48.708;9.030;2022-07-23T15:34:00;29.40;84.90
16283;DHT22;8249;48.708;9.030;2022-07-23T15:36:26;29.60;86.00
16283;DHT22;8249;48.708;9.030;2022-07-23T15:38:53;29.60;85.50
16283;DHT22;8249;48.708;9.030;2022-07-23T15:41:20;29.40;84.90
16283;DHT22;8249;48.708;9.030;2022-07-23T15:43:47;29.50;86.10
16283;DHT22;8249;48.708;9.030;2022-07-23T15:46:15;29.20;86.10
16283;DHT22;8249;48.708;9.030;2022-07-23T15:48:42;29.50;87.90
16283;DHT22;8249;48.708;9.030;2022-07-23T15:51:10;29.90;87.50
16283;DHT22;8249;48.708;9.030;2022-07-23T15:53:37;29.90;87.40
16283;DHT22;8249;48.708;9.030;2022-07-23T15:56:04;29.90;86.10
16283;DHT22;8249;48.708;9.030;2022-07-23T15:58:32;29.90;86.30